createdAt,value
2019-05-23T00:01:23.567Z,75.12
2019-05-23T00:03:53.601Z,75.26
2019-05-23T00:06:36.065Z,75.25
2019-05-23T00:09:06.746Z,75.48
2019-05-23T00:11:44.705Z,75.48
2019-05-23T00:14:24.025Z,74.79
2019-05-23T00:16:54.143Z,74.52
2019-05-23T00:19:23.802Z,74.60
2019-05-23T00:21:53.016Z,74.86
2019-05-23T00:24:22.211Z,74.75
2019-05-23T00:26:51.033Z,74.54
2019-05-23T00:29:19.765Z,74.31
2019-05-23T00:31:56.098Z,74.62
2019-05-23T00:34:25.706Z,74.61
2019-05-23T00:36:55.961Z,74.84
2019-05-23T00:39:24.527Z,75.15
2019-05-23T00:41:53.734Z,75.61
2019-05-23T00:44:22.957Z,75.92
2019-05-23T00:46:52.681Z,75.69
2019-05-23T00:49:22.080Z,75.59
2019-05-23T00:51:50.599Z,75.64
2019-05-23T00:54:20.903Z,75.37
2019-05-23T00:56:50.159Z,75.86
2019-05-23T00:59:26.662Z,75.67
2019-05-23T01:01:49.116Z,75.29
2019-05-23T01:04:17.976Z,75.57
2019-05-23T01:06:47.740Z,75.60
2019-05-23T01:09:16.837Z,76.03
2019-05-23T01:11:46.349Z,76.02
2019-05-23T01:14:15.055Z,75.95
2019-05-23T01:16:43.456Z,76.46
2019-05-23T01:19:12.114Z,76.22
2019-05-23T01:21:42.226Z,76.75
2019-05-23T01:24:12.280Z,76.87
2019-05-23T01:26:41.809Z,76.40
2019-05-23T01:29:11.145Z,76.93
2019-05-23T01:31:41.205Z,76.30
2019-05-23T01:34:11.555Z,76.27
2019-05-23T01:36:40.126Z,76.47
2019-05-23T01:39:10.276Z,77.22
2019-05-23T01:41:39.427Z,77.60
2019-05-23T01:44:08.411Z,76.98
2019-05-23T01:46:36.795Z,77.70
2019-05-23T01:49:06.733Z,77.62
2019-05-23T01:51:36.752Z,77.98
2019-05-23T01:54:05.850Z,77.71
2019-05-23T01:56:34.584Z,78.16
2019-05-23T01:59:03.812Z,78.13
2019-05-23T02:01:32.481Z,78.67
2019-05-23T02:04:02.442Z,78.35
2019-05-23T02:06:31.065Z,78.06
2019-05-23T02:08:59.525Z,78.59
2019-05-23T02:11:28.953Z,78.39
2019-05-23T02:13:57.411Z,78.60
2019-05-23T02:16:27.340Z,78.14
2019-05-23T02:18:55.737Z,78.35
2019-05-23T02:21:26.277Z,78.31
2019-05-23T02:23:54.918Z,78.58
2019-05-23T02:26:24.148Z,78.67
2019-05-23T02:28:53.049Z,78.48
2019-05-23T02:31:21.529Z,78.63
2019-05-23T02:33:50.175Z,78.70
2019-05-23T02:36:18.561Z,78.37
2019-05-23T02:38:54.286Z,78.09
2019-05-23T02:41:27.367Z,78.12
2019-05-23T02:43:58.288Z,78.56
2019-05-23T02:46:31.016Z,78.26
2019-05-23T02:49:01.182Z,78.65
2019-05-23T02:51:37.043Z,78.75
2019-05-23T02:54:10.126Z,78.61
2019-05-23T02:56:39.935Z,78.98
2019-05-23T02:59:18.881Z,79.26
2019-05-23T03:02:20.689Z,79.14
2019-05-23T03:04:49.916Z,79.42
2019-05-23T03:07:21.832Z,79.70
2019-05-23T03:09:51.695Z,79.35
2019-05-23T03:12:24.997Z,79.54
2019-05-23T03:14:51.561Z,80.09
2019-05-23T03:17:24.502Z,79.90
2019-05-23T03:19:57.740Z,80.03
2019-05-23T03:22:31.724Z,79.54
2019-05-23T03:25:04.410Z,79.50
2019-05-23T03:27:35.840Z,79.90
2019-05-23T03:30:08.210Z,80.03
2019-05-23T03:32:44.965Z,79.87
2019-05-23T03:35:16.027Z,79.60
2019-05-23T03:37:45.899Z,79.80
2019-05-23T03:40:16.159Z,79.66
2019-05-23T03:42:45.997Z,80.02
2019-05-23T03:45:16.297Z,79.77
2019-05-23T03:47:46.017Z,79.77
2019-05-23T03:50:14.457Z,80.08
2019-05-23T03:52:43.941Z,79.76
2019-05-23T03:55:13.180Z,80.12
2019-05-23T03:57:42.233Z,80.03
2019-05-23T04:00:14.306Z,79.97
2019-05-23T04:02:44.322Z,79.97
2019-05-23T04:05:13.762Z,79.82
2019-05-23T04:07:42.595Z,79.63
2019-05-23T04:10:12.292Z,79.51
2019-05-23T04:12:40.851Z,79.56
2019-05-23T04:15:10.876Z,79.96
2019-05-23T04:17:39.267Z,79.76
2019-05-23T04:20:08.873Z,79.53
2019-05-23T04:22:37.325Z,79.87
2019-05-23T04:25:07.527Z,79.43
2019-05-23T04:27:36.820Z,80.09
2019-05-23T04:30:06.918Z,79.99
2019-05-23T04:32:35.488Z,79.27
2019-05-23T04:35:05.989Z,79.52
2019-05-23T04:37:35.044Z,79.26
2019-05-23T04:40:05.543Z,80.02
2019-05-23T04:42:34.021Z,79.66
2019-05-23T04:45:03.079Z,79.58
2019-05-23T04:47:31.752Z,80.07
2019-05-23T04:50:00.564Z,79.45
2019-05-23T04:52:29.105Z,79.27
2019-05-23T04:54:58.535Z,78.61
2019-05-23T04:57:27.479Z,78.98
2019-05-23T04:59:56.230Z,78.59
2019-05-23T05:02:27.169Z,77.95
2019-05-23T05:04:56.294Z,78.68
2019-05-23T05:07:24.862Z,77.51
2019-05-23T05:09:53.240Z,78.27
2019-05-23T05:12:22.308Z,78.17
2019-05-23T05:14:51.271Z,78.16
2019-05-23T05:17:19.725Z,77.71
2019-05-23T05:19:48.112Z,77.83
2019-05-23T05:22:16.955Z,77.59
2019-05-23T05:24:45.415Z,77.06
2019-05-23T05:27:14.374Z,77.10
2019-05-23T05:29:42.756Z,76.91
2019-05-23T05:32:11.180Z,77.01
2019-05-23T05:34:39.562Z,76.66
2019-05-23T05:37:08.101Z,76.21
2019-05-23T05:39:37.275Z,76.67
2019-05-23T05:42:07.330Z,76.59
2019-05-23T05:44:36.153Z,76.37
2019-05-23T05:47:05.191Z,76.64
2019-05-23T05:49:33.745Z,76.89
2019-05-23T05:52:02.211Z,76.91
2019-05-23T05:54:30.586Z,77.12
2019-05-23T05:57:00.568Z,77.20
2019-05-23T05:59:29.728Z,77.26
2019-05-23T06:01:58.924Z,77.60
2019-05-23T06:04:27.458Z,77.69
2019-05-23T06:06:57.500Z,77.33
2019-05-23T06:09:27.572Z,76.23
2019-05-23T06:11:56.404Z,74.36
2019-05-23T06:14:24.795Z,73.45
2019-05-23T06:16:55.164Z,72.08
2019-05-23T06:19:24.002Z,70.74
2019-05-23T06:21:52.459Z,70.63
2019-05-23T06:24:39.461Z,69.78
2019-05-23T06:26:51.558Z,69.95
2019-05-23T06:29:20.331Z,69.11
2019-05-23T06:31:48.868Z,67.55
2019-05-23T06:34:17.389Z,68.02
2019-05-23T06:36:46.948Z,66.86
2019-05-23T06:39:15.632Z,66.38
2019-05-23T06:41:44.111Z,65.82
2019-05-23T06:44:13.119Z,66.51
2019-05-23T06:46:41.585Z,66.58
2019-05-23T06:49:10.061Z,66.40
2019-05-23T06:51:38.520Z,65.51
2019-05-23T06:54:06.981Z,65.15
2019-05-23T06:56:35.559Z,64.34
2019-05-23T06:59:04.626Z,63.46
2019-05-23T07:01:33.195Z,62.55
2019-05-23T07:04:01.723Z,61.60
2019-05-23T07:06:30.106Z,61.09
2019-05-23T07:08:58.954Z,60.85
2019-05-23T07:11:28.154Z,61.13
2019-05-23T07:13:56.883Z,60.43
2019-05-23T07:16:25.340Z,60.24
2019-05-23T07:18:53.809Z,59.84
2019-05-23T07:21:22.547Z,56.54
2019-05-23T07:23:50.951Z,54.69
2019-05-23T07:26:19.661Z,54.74
2019-05-23T07:28:48.556Z,52.76
2019-05-23T07:31:17.419Z,54.35
2019-05-23T07:34:00.321Z,54.99
2019-05-23T07:36:16.249Z,53.44
2019-05-23T07:38:44.789Z,52.60
2019-05-23T07:41:13.866Z,49.51
2019-05-23T07:43:42.252Z,49.45
2019-05-23T07:46:10.731Z,48.21
2019-05-23T07:48:39.444Z,48.11
2019-05-23T07:51:07.833Z,48.17
2019-05-23T07:53:50.147Z,48.53
2019-05-23T07:56:21.402Z,48.67
2019-05-23T07:58:49.842Z,48.31
2019-05-23T08:01:19.894Z,48.15
2019-05-23T08:03:51.195Z,48.76
2019-05-23T08:06:20.021Z,48.55
2019-05-23T08:08:50.043Z,48.53
2019-05-23T08:11:18.805Z,48.37
2019-05-23T08:13:48.735Z,49.36
2019-05-23T08:16:17.464Z,49.55
2019-05-23T08:18:45.994Z,49.46
2019-05-23T08:21:14.515Z,48.70
2019-05-23T08:23:42.934Z,49.33
2019-05-23T08:26:12.923Z,50.00
2019-05-23T08:29:00.964Z,49.77
2019-05-23T08:31:12.322Z,49.55
2019-05-23T08:33:40.864Z,49.46
2019-05-23T08:36:10.009Z,50.50
2019-05-23T08:38:38.915Z,49.60
2019-05-23T08:41:07.919Z,49.92
2019-05-23T08:43:36.326Z,48.93
2019-05-23T08:46:05.456Z,48.03
2019-05-23T08:48:34.026Z,47.65
2019-05-23T08:51:02.740Z,48.29
2019-05-23T08:53:31.150Z,49.40
2019-05-23T08:55:59.750Z,48.86
2019-05-23T08:58:28.190Z,49.97
2019-05-23T09:00:56.715Z,48.47
2019-05-23T09:03:25.644Z,49.11
2019-05-23T09:05:54.520Z,48.54
2019-05-23T09:08:24.388Z,48.33
2019-05-23T09:10:52.794Z,48.87
2019-05-23T09:13:21.525Z,49.47
2019-05-23T09:15:52.893Z,49.30
2019-05-23T09:18:20.136Z,47.91
2019-05-23T09:20:48.546Z,47.84
2019-05-23T09:23:16.929Z,47.33
2019-05-23T09:25:45.383Z,47.75
2019-05-23T09:28:14.139Z,47.98
2019-05-23T09:30:42.732Z,48.00
2019-05-23T09:33:11.112Z,47.16
2019-05-23T09:35:40.075Z,47.47
2019-05-23T09:38:08.657Z,48.56
2019-05-23T09:40:37.045Z,46.52
2019-05-23T09:43:06.002Z,47.48
2019-05-23T09:45:34.520Z,47.86
2019-05-23T09:48:03.364Z,48.71
2019-05-23T09:50:32.430Z,46.86
2019-05-23T09:53:01.160Z,45.83
2019-05-23T09:55:30.289Z,45.63
2019-05-23T09:57:58.702Z,45.71
2019-05-23T10:00:27.115Z,45.19
2019-05-23T10:02:55.691Z,44.72
2019-05-23T10:05:40.693Z,45.03
2019-05-23T10:07:54.223Z,45.05
2019-05-23T10:10:22.876Z,44.06
2019-05-23T10:12:51.409Z,43.91
2019-05-23T10:15:40.127Z,43.39
2019-05-23T10:18:19.082Z,43.89
2019-05-23T10:20:47.527Z,45.30
2019-05-23T10:23:15.980Z,46.41
2019-05-23T10:25:45.020Z,45.87
2019-05-23T10:28:14.307Z,45.11
2019-05-23T10:30:42.721Z,45.06
2019-05-23T10:33:12.961Z,45.56
2019-05-23T10:35:56.918Z,44.88
2019-05-23T10:38:11.567Z,44.69
2019-05-23T10:40:40.047Z,45.63
2019-05-23T10:43:09.195Z,45.32
2019-05-23T10:45:37.677Z,44.11
2019-05-23T10:48:06.905Z,43.34
2019-05-23T10:50:44.091Z,43.06
2019-05-23T10:53:05.529Z,43.75
2019-05-23T10:55:33.978Z,44.27
2019-05-23T10:58:03.378Z,44.92
2019-05-23T11:00:32.514Z,44.09
2019-05-23T11:03:01.247Z,43.57
2019-05-23T11:05:29.850Z,44.62
2019-05-23T11:07:59.329Z,45.21
2019-05-23T11:10:28.683Z,44.79
2019-05-23T11:12:57.183Z,45.21
2019-05-23T11:15:25.709Z,45.57
2019-05-23T11:17:54.372Z,45.24
2019-05-23T11:20:22.999Z,44.72
2019-05-23T11:22:51.525Z,45.10
2019-05-23T11:25:19.974Z,44.30
2019-05-23T11:27:48.463Z,44.11
2019-05-23T11:30:20.576Z,42.91
2019-05-23T11:32:48.988Z,43.91
2019-05-23T11:35:17.471Z,43.59
2019-05-23T11:37:45.854Z,43.26
2019-05-23T11:40:14.311Z,43.25
2019-05-23T11:42:42.757Z,44.00
2019-05-23T11:45:13.047Z,42.25
2019-05-23T11:47:41.452Z,42.25
2019-05-23T11:50:10.288Z,42.80
2019-05-23T11:52:38.775Z,42.63
2019-05-23T11:55:08.745Z,42.63
2019-05-23T11:57:38.482Z,43.74
2019-05-23T12:00:10.622Z,43.04
2019-05-23T12:02:43.936Z,43.48
2019-05-23T12:05:20.502Z,43.48
2019-05-23T12:07:48.967Z,43.82
2019-05-23T12:10:18.506Z,43.54
2019-05-23T12:12:47.015Z,42.70
2019-05-23T12:15:20.748Z,43.55
2019-05-23T12:17:49.153Z,42.41
2019-05-23T12:20:18.259Z,42.41
2019-05-23T12:22:47.195Z,42.87
2019-05-23T12:25:22.377Z,43.40
2019-05-23T12:27:46.145Z,43.32
2019-05-23T12:30:16.632Z,43.32
2019-05-23T12:32:45.013Z,42.32
2019-05-23T12:35:13.529Z,42.28
2019-05-23T12:37:41.994Z,42.50
2019-05-23T12:40:12.516Z,41.64
2019-05-23T12:42:40.903Z,41.74
2019-05-23T12:45:11.894Z,41.51
2019-05-23T12:47:44.620Z,40.78
2019-05-23T12:50:20.498Z,40.67
2019-05-23T12:52:48.960Z,40.21
2019-05-23T12:55:17.590Z,40.23
2019-05-23T12:57:46.108Z,41.02
2019-05-23T13:00:25.667Z,41.43
2019-05-23T13:02:54.988Z,41.38
2019-05-23T13:05:23.709Z,41.31
2019-05-23T13:07:52.472Z,41.29
2019-05-23T13:10:24.752Z,40.27
2019-05-23T13:12:51.410Z,40.19
2019-05-23T13:15:21.097Z,39.79
2019-05-23T13:17:49.484Z,40.02
2019-05-23T13:20:18.303Z,39.14
2019-05-23T13:22:47.032Z,40.23
2019-05-23T13:25:16.074Z,40.23
2019-05-23T13:27:44.459Z,40.39
2019-05-23T13:30:13.312Z,40.91
2019-05-23T13:32:41.943Z,40.81
2019-05-23T13:35:10.386Z,41.64
2019-05-23T13:37:52.498Z,42.03
2019-05-23T13:40:10.229Z,41.16
2019-05-23T13:42:38.767Z,41.16
2019-05-23T13:45:07.915Z,41.72
2019-05-23T13:47:36.471Z,42.12
2019-05-23T13:50:06.676Z,42.12
2019-05-23T13:52:35.549Z,42.43
2019-05-23T13:55:08.110Z,42.17
2019-05-23T13:57:37.201Z,39.52
2019-05-23T14:00:07.718Z,39.35
2019-05-23T14:02:36.398Z,39.45
2019-05-23T14:05:07.492Z,40.05
2019-05-23T14:07:36.594Z,39.49
2019-05-23T14:10:09.879Z,39.65
2019-05-23T14:12:38.600Z,39.18
2019-05-23T14:15:09.215Z,38.97
2019-05-23T14:17:39.335Z,39.46
2019-05-23T14:20:08.143Z,40.01
2019-05-23T14:22:38.174Z,39.67
2019-05-23T14:25:07.103Z,39.76
2019-05-23T14:27:42.730Z,40.08
2019-05-23T14:30:29.126Z,39.77
2019-05-23T14:32:59.785Z,39.77
2019-05-23T14:35:29.828Z,40.13
2019-05-23T14:37:59.911Z,40.51
2019-05-23T14:40:28.654Z,40.51
2019-05-23T14:42:58.744Z,40.83
2019-05-23T14:45:31.519Z,40.12
2019-05-23T14:48:01.917Z,40.54
2019-05-23T14:50:38.419Z,40.30
2019-05-23T14:53:08.554Z,39.95
2019-05-23T14:55:36.937Z,40.38
2019-05-23T14:58:06.320Z,40.38
2019-05-23T15:00:35.346Z,39.84
2019-05-23T15:03:04.808Z,40.05
2019-05-23T15:05:33.638Z,41.30
2019-05-23T15:08:02.059Z,41.30
2019-05-23T15:10:30.612Z,40.10
2019-05-23T15:12:59.612Z,40.77
2019-05-23T15:15:28.110Z,39.92
2019-05-23T15:17:56.467Z,39.92
2019-05-23T15:20:25.020Z,40.30
2019-05-23T15:22:53.440Z,40.08
2019-05-23T15:25:21.905Z,40.09
2019-05-23T15:27:50.290Z,40.53
2019-05-23T15:30:19.050Z,40.16
2019-05-23T15:32:47.500Z,40.99
2019-05-23T15:35:16.228Z,41.32
2019-05-23T15:37:44.699Z,40.99
2019-05-23T15:40:13.211Z,40.90
2019-05-23T15:42:41.595Z,40.53
2019-05-23T15:45:10.274Z,40.38
2019-05-23T15:47:38.722Z,40.27
2019-05-23T15:50:12.230Z,40.47
2019-05-23T15:52:48.599Z,41.21
2019-05-23T15:55:21.822Z,41.16
2019-05-23T15:57:51.931Z,40.63
2019-05-23T16:00:24.990Z,40.56
2019-05-23T16:03:00.943Z,41.27
2019-05-23T16:05:29.334Z,40.51
2019-05-23T16:07:57.785Z,40.98
2019-05-23T16:10:27.122Z,39.94
2019-05-23T16:12:55.536Z,40.33
2019-05-23T16:15:24.238Z,40.06
2019-05-23T16:17:52.684Z,41.06
2019-05-23T16:20:21.144Z,40.60
2019-05-23T16:22:49.524Z,40.09
2019-05-23T16:25:18.011Z,39.89
2019-05-23T16:27:46.409Z,39.70
2019-05-23T16:30:15.127Z,40.12
2019-05-23T16:32:46.563Z,39.51
2019-05-23T16:35:13.632Z,39.78
2019-05-23T16:37:42.086Z,40.26
2019-05-23T16:40:10.638Z,39.50
2019-05-23T16:42:39.112Z,39.47
2019-05-23T16:45:08.052Z,39.14
2019-05-23T16:47:36.772Z,39.30
2019-05-23T16:50:08.127Z,39.39
2019-05-23T16:52:36.880Z,39.75
2019-05-23T16:55:07.832Z,39.44
2019-05-23T16:57:37.933Z,39.49
2019-05-23T17:00:16.811Z,39.47
2019-05-23T17:02:46.908Z,39.34
2019-05-23T17:05:33.512Z,39.45
2019-05-23T17:08:12.299Z,39.61
2019-05-23T17:10:42.482Z,39.01
2019-05-23T17:13:12.513Z,39.37
2019-05-23T17:15:42.536Z,39.59
2019-05-23T17:18:21.646Z,39.59
2019-05-23T17:20:54.086Z,40.14
2019-05-23T17:23:40.349Z,40.61
2019-05-23T17:26:26.074Z,40.64
2019-05-23T17:28:58.695Z,40.92
2019-05-23T17:31:37.515Z,40.92
2019-05-23T17:34:06.483Z,40.59
2019-05-23T17:36:35.859Z,40.61
2019-05-23T17:39:07.474Z,40.77
2019-05-23T17:41:36.895Z,40.60
2019-05-23T17:44:05.850Z,40.91
2019-05-23T17:46:34.326Z,41.23
2019-05-23T17:49:02.747Z,41.09
2019-05-23T17:51:31.626Z,40.98
2019-05-23T17:54:00.126Z,41.30
2019-05-23T17:56:28.503Z,41.02
2019-05-23T17:58:57.451Z,40.93
2019-05-23T18:01:26.370Z,41.20
2019-05-23T18:03:55.003Z,41.83
2019-05-23T18:06:23.512Z,41.83
2019-05-23T18:08:52.585Z,41.22
2019-05-23T18:11:21.012Z,41.70
2019-05-23T18:13:49.671Z,41.67
2019-05-23T18:16:19.411Z,41.62
2019-05-23T18:18:48.051Z,43.48
2019-05-23T18:21:17.212Z,43.48
2019-05-23T18:23:45.790Z,44.01
2019-05-23T18:26:14.516Z,44.24
2019-05-23T18:28:43.495Z,44.93
2019-05-23T18:31:16.244Z,45.25
2019-05-23T18:33:44.678Z,45.46
2019-05-23T18:36:14.257Z,45.46
2019-05-23T18:38:42.700Z,45.85
2019-05-23T18:41:11.527Z,46.09
2019-05-23T18:43:40.004Z,46.14
2019-05-23T18:46:19.291Z,46.66
2019-05-23T18:48:56.396Z,46.70
2019-05-23T18:51:25.013Z,46.94
2019-05-23T18:53:53.391Z,46.99
2019-05-23T18:56:21.834Z,47.59
2019-05-23T18:58:50.452Z,48.03
2019-05-23T19:01:20.007Z,48.17
2019-05-23T19:03:48.461Z,48.40
2019-05-23T19:06:16.861Z,48.97
2019-05-23T19:08:45.354Z,49.22
2019-05-23T19:11:20.660Z,49.61
2019-05-23T19:13:44.374Z,50.33
2019-05-23T19:16:12.808Z,50.66
2019-05-23T19:18:41.644Z,50.76
2019-05-23T19:21:11.455Z,50.52
2019-05-23T19:23:39.932Z,50.63
2019-05-23T19:26:08.755Z,50.76
2019-05-23T19:28:37.241Z,51.17
2019-05-23T19:31:06.220Z,51.60
2019-05-23T19:33:35.613Z,52.01
2019-05-23T19:36:05.222Z,51.95
2019-05-23T19:38:33.608Z,52.09
2019-05-23T19:41:02.320Z,52.28
2019-05-23T19:43:30.842Z,52.55
2019-05-23T19:45:59.323Z,52.85
2019-05-23T19:48:28.116Z,52.75
2019-05-23T19:50:57.074Z,52.94
2019-05-23T19:53:25.705Z,53.17
2019-05-23T19:55:59.536Z,53.34
2019-05-23T19:58:28.294Z,53.54
2019-05-23T20:00:57.222Z,54.27
2019-05-23T20:03:25.873Z,54.36
2019-05-23T20:05:55.757Z,54.96
2019-05-23T20:08:24.408Z,55.24
2019-05-23T20:10:53.066Z,55.42
2019-05-23T20:13:22.896Z,55.54
2019-05-23T20:15:51.552Z,55.96
2019-05-23T20:18:19.965Z,56.10
2019-05-23T20:20:48.679Z,56.48
2019-05-23T20:23:17.706Z,56.80
2019-05-23T20:25:46.334Z,57.10
2019-05-23T20:28:16.090Z,57.44
2019-05-23T20:30:48.311Z,57.74
2019-05-23T20:33:16.713Z,58.12
2019-05-23T20:35:45.201Z,58.25
2019-05-23T20:38:13.697Z,58.56
2019-05-23T20:40:42.238Z,58.50
2019-05-23T20:43:10.689Z,58.78
2019-05-23T20:45:39.514Z,59.14
2019-05-23T20:48:08.265Z,59.54
2019-05-23T20:50:37.005Z,59.88
2019-05-23T20:53:05.766Z,59.79
2019-05-23T20:55:34.713Z,59.73
2019-05-23T20:58:03.959Z,59.94
2019-05-23T21:00:33.985Z,60.19
2019-05-23T21:03:03.148Z,60.49
2019-05-23T21:05:31.918Z,60.84
2019-05-23T21:08:00.369Z,61.28
2019-05-23T21:10:43.901Z,61.29
2019-05-23T21:13:12.415Z,61.34
2019-05-23T21:15:41.155Z,61.87
2019-05-23T21:18:10.928Z,61.99
2019-05-23T21:20:39.424Z,61.88
2019-05-23T21:23:08.110Z,62.51
2019-05-23T21:25:38.183Z,62.69
2019-05-23T21:28:06.564Z,62.91
2019-05-23T21:30:35.083Z,63.07
2019-05-23T21:33:03.750Z,63.18
2019-05-23T21:35:32.391Z,62.94
2019-05-23T21:38:00.847Z,63.02
2019-05-23T21:40:38.147Z,62.66
2019-05-23T21:43:06.626Z,62.69
2019-05-23T21:45:35.165Z,62.88
2019-05-23T21:48:03.805Z,63.59
2019-05-23T21:50:32.504Z,63.60
2019-05-23T21:53:00.881Z,63.77
2019-05-23T21:55:37.073Z,64.08
2019-05-23T21:58:06.289Z,64.18
2019-05-23T22:01:06.298Z,64.34
2019-05-23T22:03:52.766Z,64.79
2019-05-23T22:06:27.487Z,64.82
2019-05-23T22:08:56.247Z,64.86
2019-05-23T22:11:24.941Z,65.04
2019-05-23T22:13:53.348Z,64.99
2019-05-23T22:16:21.763Z,65.05
2019-05-23T22:18:50.144Z,65.23
2019-05-23T22:21:18.598Z,65.19
2019-05-23T22:23:47.070Z,65.20
2019-05-23T22:26:15.465Z,65.35
2019-05-23T22:28:44.215Z,65.68
2019-05-23T22:31:12.890Z,65.98
2019-05-23T22:33:42.921Z,65.99
2019-05-23T22:36:11.893Z,65.84
2019-05-23T22:38:40.272Z,65.80
2019-05-23T22:41:08.691Z,65.72
2019-05-23T22:43:37.099Z,66.11
2019-05-23T22:46:05.556Z,66.27
2019-05-23T22:48:34.029Z,66.84
2019-05-23T22:51:02.435Z,67.31
2019-05-23T22:53:30.871Z,67.57
2019-05-23T22:55:59.270Z,67.58
2019-05-23T22:58:27.719Z,67.79
2019-05-23T23:00:56.158Z,67.91
2019-05-23T23:03:24.642Z,68.11
2019-05-23T23:05:53.102Z,68.47
2019-05-23T23:08:21.938Z,68.47
2019-05-23T23:10:50.440Z,68.37
2019-05-23T23:13:18.844Z,68.45
2019-05-23T23:15:47.253Z,68.55
2019-05-23T23:18:15.744Z,68.60
2019-05-23T23:20:45.811Z,68.81
2019-05-23T23:23:14.285Z,68.72
2019-05-23T23:25:42.787Z,68.64
2019-05-23T23:28:11.216Z,68.75
2019-05-23T23:30:43.945Z,68.96
2019-05-23T23:33:12.437Z,68.70
2019-05-23T23:35:40.836Z,68.90
2019-05-23T23:38:09.718Z,69.12
2019-05-23T23:40:38.250Z,69.33
2019-05-23T23:43:06.677Z,69.66
2019-05-23T23:45:52.996Z,69.83
2019-05-23T23:48:39.166Z,69.96
2019-05-23T23:51:25.363Z,69.76
2019-05-23T23:54:11.208Z,69.88
2019-05-23T23:56:57.714Z,70.15
2019-05-23T23:59:25.419Z,70.03
